Time;durP1;ratioP1;P1;durP2;ratioP2;P2;SDS_P1;SDS_P2;PMS_P1;PMS_P2;Temp;Humidity;BMP_temperature;BMP_pressure;BME280_temperature;BME280_humidity;BME280_pressure;Samples;Min_cycle;Max_cycle;Signal;HPM_P1;HPM_P2
2022/02/22 00:04:57;;;;;;;9.88;2.28;;;;;;;5.89;87.69;100446.09;20809920;28;20053;-69
2022/02/22 00:15:05;;;;;;;11.40;2.35;;;;;;;5.95;87.22;100473.88;20820923;28;20058;-69
2022/02/22 00:25:11;;;;;;;8.60;1.70;;;;;;;6.12;85.71;100479.13;20819109;28;20131;-67
2022/02/22 00:35:14;;;;;;;9.52;2.20;;;;;;;6.12;86.47;100502.50;20817174;28;20053;-67
2022/02/22 00:45:16;;;;;;;12.98;2.17;;;;;;;5.95;88.18;100509.38;20817696;28;20053;-66
2022/02/22 00:55:18;;;;;;;6.88;1.65;;;;;;;5.79;89.10;100529.16;20816843;28;20056;-70
2022/02/22 01:05:20;;;;;;;11.10;1.88;;;;;;;5.67;89.21;100558.56;20816151;28;20095;-70
2022/02/22 01:15:21;;;;;;;10.32;2.05;;;;;;;5.44;90.56;100576.56;20816403;28;20072;-69
2022/02/22 01:25:26;;;;;;;12.80;2.28;;;;;;;5.46;90.07;100586.94;20814876;28;20544;-69
2022/02/22 01:35:28;;;;;;;15.13;2.08;;;;;;;5.34;90.39;100588.59;20814930;28;20057;-68
2022/02/22 01:45:29;;;;;;;12.43;2.53;;;;;;;5.20;90.46;100603.19;20815887;28;20041;-68
2022/02/22 01:55:32;;;;;;;8.38;2.20;;;;;;;5.08;89.99;100634.22;20831188;28;20065;-68
2022/02/22 02:05:34;;;;;;;12.10;1.95;;;;;;;5.13;89.71;100646.38;20830271;28;20049;-68
2022/02/22 02:15:36;;;;;;;10.45;2.50;;;;;;;5.10;89.40;100656.72;20830207;28;20065;-68
2022/02/22 02:25:37;;;;;;;14.48;2.22;;;;;;;5.14;88.54;100655.03;20828389;28;20072;-68
2022/02/22 02:35:39;;;;;;;8.90;1.58;;;;;;;5.19;89.17;100666.34;20828607;28;20111;-68
2022/02/22 02:45:40;;;;;;;10.70;2.03;;;;;;;5.16;88.73;100692.25;20827786;28;20410;-69
2022/02/22 02:55:41;;;;;;;8.82;1.98;;;;;;;5.08;90.71;100701.69;20826552;28;20053;-69
2022/02/22 03:05:43;;;;;;;7.75;1.80;;;;;;;4.95;91.83;100710.19;20824844;28;20467;-69
2022/02/22 03:15:44;;;;;;;7.05;1.90;;;;;;;4.92;92.76;100723.09;20826291;28;20501;-68
2022/02/22 03:25:48;;;;;;;8.50;2.10;;;;;;;4.77;93.33;100740.22;20824792;28;20099;-68
2022/02/22 03:35:50;;;;;;;10.38;2.40;;;;;;;4.82;93.35;100769.69;20823314;28;20056;-68
2022/02/22 03:45:51;;;;;;;10.40;2.67;;;;;;;4.70;93.60;100782.50;20822917;28;20050;-68
2022/02/22 03:55:54;;;;;;;8.57;2.30;;;;;;;4.42;96.18;100801.09;20822155;28;20045;-69
2022/02/22 04:05:56;;;;;;;13.10;3.15;;;;;;;4.28;96.99;100812.09;20821248;28;20049;-69
2022/02/22 04:15:57;;;;;;;10.63;3.17;;;;;;;4.15;98.72;100842.97;20820345;28;20057;-69
2022/02/22 04:25:58;;;;;;;8.68;2.63;;;;;;;4.11;98.72;100855.00;20818914;28;20383;-69
2022/02/22 04:36:00;;;;;;;8.52;2.55;;;;;;;4.24;98.56;100856.09;20819135;28;20045;-66
2022/02/22 04:46:01;;;;;;;10.43;2.30;;;;;;;4.14;98.36;100865.44;20819314;28;20064;-66
2022/02/22 04:56:04;;;;;;;8.18;2.75;;;;;;;4.16;99.27;100868.91;20818736;28;20056;-66
2022/02/22 05:06:05;;;;;;;10.57;3.17;;;;;;;4.21;99.78;100890.59;20817158;28;20490;-67
2022/02/22 05:16:07;;;;;;;14.48;5.00;;;;;;;3.96;100.00;100898.75;20817242;28;20058;-66
2022/02/22 05:26:11;;;;;;;11.55;3.22;;;;;;;3.97;99.43;100905.69;20815203;28;20111;-66
2022/02/22 05:36:12;;;;;;;12.55;2.75;;;;;;;3.93;99.85;100909.06;20807733;28;20522;-66
2022/02/22 05:46:14;;;;;;;10.27;3.65;;;;;;;4.06;99.96;100916.22;20814892;28;20052;-66
2022/02/22 05:56:16;;;;;;;15.60;3.92;;;;;;;4.15;100.00;100920.72;20815223;28;20406;-69
2022/02/22 06:06:17;;;;;;;16.55;3.40;;;;;;;4.16;99.37;100928.50;20807763;28;20422;-69
2022/02/22 06:16:19;;;;;;;13.93;3.60;;;;;;;4.01;100.00;100946.34;20815733;28;20060;-69
2022/02/22 06:26:21;;;;;;;15.02;3.47;;;;;;;3.98;100.00;100951.50;20814586;28;20049;-69
2022/02/22 06:36:23;;;;;;;12.52;3.50;;;;;;;3.84;100.00;100977.13;20815382;28;20050;-69
2022/02/22 06:46:24;;;;;;;12.50;3.60;;;;;;;3.76;100.00;100992.50;20829880;28;20045;-69
2022/02/22 06:56:26;;;;;;;21.55;4.57;;;;;;;3.80;100.00;101009.84;20827848;28;20052;-68
2022/02/22 07:06:27;;;;;;;12.73;3.55;;;;;;;3.93;100.00;101028.22;20826943;28;20052;-69
2022/02/22 07:16:29;;;;;;;11.23;3.33;;;;;;;4.15;99.06;101032.16;20826308;28;20103;-69
2022/02/22 07:26:30;;;;;;;13.95;3.75;;;;;;;4.52;97.04;101046.72;20824547;28;20069;-68
2022/02/22 07:36:32;;;;;;;12.50;3.20;;;;;;;4.84;95.49;101047.34;20824326;28;20080;-70
2022/02/22 07:46:33;;;;;;;13.20;3.20;;;;;;;5.09;94.42;101064.19;20823241;28;20491;-70
2022/02/22 07:56:35;;;;;;;14.18;3.42;;;;;;;5.45;93.00;101079.50;20821301;28;20060;-69
2022/02/22 08:06:36;;;;;;;13.70;3.15;;;;;;;5.62;92.13;101105.75;20806538;28;20466;-69
2022/02/22 08:16:38;;;;;;;15.43;2.75;;;;;;;5.90;91.37;101131.31;20807096;28;20053;-69
2022/02/22 08:26:39;;;;;;;14.57;2.90;;;;;;;6.25;89.88;101128.38;20757820;28;20049;-69
2022/02/22 08:36:41;;;;;;;13.32;2.78;;;;;;;6.36;89.29;101128.50;20753132;28;20176;-69
2022/02/22 08:46:43;;;;;;;12.77;2.80;;;;;;;6.55;88.58;101137.41;20747077;28;20129;-70
2022/02/22 08:56:45;;;;;;;13.95;3.08;;;;;;;6.81;87.82;101145.56;20745901;28;20053;-69
2022/02/22 09:06:47;;;;;;;15.07;2.67;;;;;;;7.05;86.08;101125.00;20744723;28;20431;-67
2022/02/22 09:16:48;;;;;;;10.77;2.45;;;;;;;7.39;85.91;101126.19;20755016;28;20136;-70
2022/02/22 09:26:50;;;;;;;13.70;3.00;;;;;;;7.54;84.40;101108.94;20770625;28;20045;-74
2022/02/22 09:36:51;;;;;;;18.23;2.80;;;;;;;7.93;80.75;101104.00;20809731;28;20121;-74
2022/02/22 09:46:53;;;;;;;12.77;2.80;;;;;;;8.35;77.66;101099.88;20810313;28;20114;-75
2022/02/22 09:56:56;;;;;;;12.45;2.83;;;;;;;8.38;76.23;101092.09;20805452;28;20498;-71
2022/02/22 10:07:03;;;;;;;12.23;3.38;;;;;;;8.37;76.86;101085.13;20808581;28;20049;-67
2022/02/22 10:17:05;;;;;;;14.82;3.80;;;;;;;8.40;76.69;101081.69;20816255;28;20054;-72
2022/02/22 10:27:09;;;;;;;15.90;3.38;;;;;;;8.59;77.99;101085.22;20822290;28;20046;-65
2022/02/22 10:37:10;;;;;;;22.30;4.00;;;;;;;8.20;82.59;101103.28;20823060;28;20060;-67
2022/02/22 10:47:20;;;;;;;51.80;14.15;;;;;;;8.17;83.91;101107.63;20823408;28;20491;-67
2022/02/22 10:57:23;;;;;;;19.00;4.95;;;;;;;8.28;82.64;101103.31;20815156;28;20084;-67
2022/02/22 11:07:26;;;;;;;17.63;4.53;;;;;;;8.26;80.39;101092.00;20821127;28;20080;-67
2022/02/22 11:17:30;;;;;;;17.60;3.92;;;;;;;8.35;80.37;101072.94;20818955;28;20050;-66
2022/02/22 11:27:38;;;;;;;17.85;3.95;;;;;;;8.70;78.19;101049.56;20815765;28;20324;-68
2022/02/22 11:37:41;;;;;;;21.73;4.95;;;;;;;8.61;76.23;101054.75;20812401;28;20063;-67
2022/02/22 11:47:42;;;;;;;26.50;4.75;;;;;;;8.76;76.12;101035.66;20817266;28;20499;-67
2022/02/22 11:57:47;;;;;;;29.05;6.03;;;;;;;8.99;74.04;101033.94;20815556;28;20049;-67
2022/02/22 12:07:59;;;;;;;27.30;4.93;;;;;;;9.06;75.34;101034.84;20810667;28;20632;-69
2022/02/22 12:18:01;;;;;;;25.65;5.50;;;;;;;9.00;75.59;101031.34;20809585;28;20075;-67
2022/02/22 12:28:04;;;;;;;24.63;5.05;;;;;;;8.91;75.29;101033.97;20811139;28;20494;-67
2022/02/22 12:38:17;;;;;;;28.65;5.43;;;;;;;9.06;74.81;100999.16;20794254;28;20054;-67
2022/02/22 12:48:21;;;;;;;22.50;4.63;;;;;;;9.26;72.83;100983.44;20809018;28;20046;-66
2022/02/22 12:58:34;;;;;;;23.10;5.07;;;;;;;9.27;72.41;100982.56;20810504;28;20144;-66
2022/02/22 13:08:36;;;;;;;25.70;5.00;;;;;;;9.16;71.47;100992.19;20808355;28;20068;-66
2022/02/22 13:18:38;;;;;;;20.45;4.55;;;;;;;9.12;72.36;100974.75;20809148;28;20057;-67
2022/02/22 13:28:42;;;;;;;22.70;3.92;;;;;;;9.16;72.96;100964.31;20808353;28;20053;-67
2022/02/22 13:38:54;;;;;;;;;;;;;;;9.20;75.04;100970.41;20808426;28;20045;-67
2022/02/22 13:49:01;;;;;;;20.48;3.80;;;;;;;9.05;73.77;100965.16;20805520;28;19929;-67
2022/02/22 13:59:11;;;;;;;21.92;4.38;;;;;;;9.64;71.64;100930.22;20807863;28;20057;-67
2022/02/22 14:09:12;;;;;;;20.35;3.53;;;;;;;9.61;69.13;100928.47;20806242;28;20053;-66
2022/02/22 14:19:14;;;;;;;20.92;4.53;;;;;;;9.54;69.44;100891.94;20805365;28;20073;-67
2022/02/22 14:29:17;;;;;;;18.38;3.35;;;;;;;9.44;66.78;100878.88;20806976;28;21000;-66
2022/02/22 14:39:18;;;;;;;18.98;3.70;;;;;;;9.35;67.32;100891.97;20805920;28;20053;-66
2022/02/22 14:49:20;;;;;;;21.50;3.70;;;;;;;9.29;67.97;100898.94;20792411;28;20046;-68
2022/02/22 14:59:21;;;;;;;19.25;3.65;;;;;;;9.30;67.69;100880.66;20815557;28;20057;-66
2022/02/22 15:09:23;;;;;;;19.42;3.60;;;;;;;9.17;69.86;100892.03;20818551;28;20045;-66
2022/02/22 15:19:24;;;;;;;18.15;4.38;;;;;;;9.25;71.03;100900.72;20809308;28;20049;-67
2022/02/22 15:29:26;;;;;;;19.30;4.32;;;;;;;9.30;70.62;100878.06;20817736;28;20060;-68
2022/02/22 15:39:28;;;;;;;28.23;4.93;;;;;;;8.98;73.96;100883.34;20816453;28;20053;-68
2022/02/22 15:49:29;;;;;;;23.00;4.85;;;;;;;9.08;73.41;100876.34;20814633;28;20041;-68
2022/02/22 15:59:31;;;;;;;20.48;5.03;;;;;;;8.91;75.64;100863.31;20811844;28;20530;-68
2022/02/22 16:09:32;;;;;;;21.23;4.68;;;;;;;8.87;76.69;100872.91;20811612;28;20096;-67
2022/02/22 16:19:34;;;;;;;24.98;4.75;;;;;;;8.77;76.88;100871.19;20811938;28;20057;-67
2022/02/22 16:29:36;;;;;;;24.40;4.55;;;;;;;8.77;77.42;100881.63;20812324;28;20045;-68
2022/02/22 16:39:38;;;;;;;22.17;4.50;;;;;;;8.63;80.63;100889.47;20812786;28;20049;-67
2022/02/22 16:49:40;;;;;;;22.45;4.40;;;;;;;8.61;81.13;100900.75;20812660;28;20111;-67
2022/02/22 16:59:41;;;;;;;21.27;4.05;;;;;;;8.40;83.32;100896.41;20810651;28;20057;-67
2022/02/22 17:09:44;;;;;;;18.80;3.70;;;;;;;8.33;84.63;100903.31;20809409;28;20088;-67
2022/02/22 17:19:46;;;;;;;18.20;3.92;;;;;;;8.29;85.45;100893.75;20808064;28;20565;-67
2022/02/22 17:29:49;;;;;;;21.80;4.25;;;;;;;8.27;86.88;100892.88;20808889;28;20053;-68
2022/02/22 17:39:51;;;;;;;22.02;3.38;;;;;;;8.28;86.59;100912.88;20799762;28;20045;-67
2022/02/22 17:49:52;;;;;;;16.00;4.30;;;;;;;8.21;87.90;100895.47;20807246;28;20139;-68
2022/02/22 17:59:54;;;;;;;16.70;4.00;;;;;;;8.26;88.89;100892.88;20806974;28;20045;-67
2022/02/22 18:09:56;;;;;;;18.10;3.78;;;;;;;8.19;89.48;100895.47;20805291;28;20163;-68
2022/02/22 18:19:57;;;;;;;13.00;3.78;;;;;;;8.17;90.09;100894.59;20804764;28;20511;-68
2022/02/22 18:29:59;;;;;;;13.40;3.10;;;;;;;8.15;90.57;100892.88;20811476;28;20045;-67
2022/02/22 18:40:00;;;;;;;21.38;4.43;;;;;;;8.16;90.45;100881.56;20821511;28;20499;-68
2022/02/22 18:50:03;;;;;;;13.77;3.40;;;;;;;8.17;90.56;100863.28;20820317;28;20053;-67
2022/02/22 19:00:08;;;;;;;13.85;3.47;;;;;;;8.14;90.57;100883.28;20819084;28;20053;-69
2022/02/22 19:10:10;;;;;;;14.80;3.05;;;;;;;8.08;92.08;100872.84;20811313;28;20100;-68
2022/02/22 19:20:13;;;;;;;11.82;2.53;;;;;;;8.17;91.30;100873.72;20802620;28;20053;-68
2022/02/22 19:30:14;;;;;;;17.95;4.32;;;;;;;8.13;93.01;100865.91;20817121;28;20053;-68
2022/02/22 19:40:16;;;;;;;10.05;2.33;;;;;;;8.08;93.35;100862.41;20815030;28;20046;-68
2022/02/22 19:50:17;;;;;;;16.92;3.72;;;;;;;8.18;93.87;100853.72;20808189;28;20049;-68
2022/02/22 20:00:21;;;;;;;11.00;3.92;;;;;;;8.30;93.74;100851.16;20809410;28;20053;-68
2022/02/22 20:10:23;;;;;;;10.35;3.05;;;;;;;8.24;94.36;100864.19;20813494;28;20123;-67
2022/02/22 20:20:25;;;;;;;11.25;3.08;;;;;;;8.33;94.67;100874.59;20812987;28;20703;-68
2022/02/22 20:30:27;;;;;;;11.45;3.05;;;;;;;8.33;95.61;100874.59;20812069;28;20045;-68
2022/02/22 20:40:29;;;;;;;9.60;2.75;;;;;;;8.29;96.47;100875.50;20810951;28;20107;-68
2022/02/22 20:50:30;;;;;;;13.82;3.85;;;;;;;8.14;98.76;100880.66;20810380;28;20054;-68
2022/02/22 21:00:32;;;;;;;9.35;2.25;;;;;;;7.85;100.00;100907.53;20810412;28;20518;-69
2022/02/22 21:10:38;;;;;;;10.60;2.45;;;;;;;7.80;100.00;100908.38;20807064;28;20088;-70
2022/02/22 21:20:40;;;;;;;7.95;2.65;;;;;;;7.73;100.00;100907.50;20808671;28;20461;-69
2022/02/22 21:30:41;;;;;;;6.93;1.98;;;;;;;7.79;100.00;100912.72;20800927;28;20053;-69
2022/02/22 21:40:43;;;;;;;7.15;1.92;;;;;;;7.64;100.00;100912.69;20808348;28;20600;-69
2022/02/22 21:50:45;;;;;;;8.48;2.83;;;;;;;7.48;100.00;100913.47;20809077;28;20103;-70
2022/02/22 22:00:47;;;;;;;14.50;4.43;;;;;;;7.46;100.00;100918.66;20833744;23;20045;-70
2022/02/22 22:10:48;;;;;;;18.17;6.25;;;;;;;7.51;100.00;100926.50;20905021;28;20052;-71
2022/02/22 22:20:50;;;;;;;11.93;3.03;;;;;;;7.44;100.00;100941.25;20905592;28;20045;-69
2022/02/22 22:30:51;;;;;;;11.93;2.65;;;;;;;7.40;100.00;100950.75;20903386;28;20130;-68
2022/02/22 22:40:56;;;;;;;10.07;2.30;;;;;;;7.44;100.00;100942.09;20903602;28;20056;-69
2022/02/22 22:50:57;;;;;;;9.80;2.38;;;;;;;7.46;100.00;100950.78;20904817;28;20560;-71
2022/02/22 23:01:17;;;;;;;9.98;2.60;;;;;;;7.46;100.00;100957.75;20902778;28;20114;-71
2022/02/22 23:22:00;;;;;;;11.30;2.97;;;;;;;7.48;100.00;100963.84;20810594;28;20045;-71
2022/02/22 23:32:04;;;;;;;8.65;3.20;;;;;;;7.43;100.00;100969.03;20907044;28;20080;-71
2022/02/22 23:42:06;;;;;;;9.52;2.30;;;;;;;7.49;100.00;100975.16;20904726;28;20049;-72
2022/02/22 23:52:08;;;;;;;7.93;2.25;;;;;;;7.35;100.00;100994.16;20907947;28;20444;-71
